Time;durP1;ratioP1;P1;durP2;ratioP2;P2;SDS_P1;SDS_P2;PMS_P1;PMS_P2;Temp;Humidity;BMP_temperature;BMP_pressure;BME280_temperature;BME280_humidity;BME280_pressure;Samples;Min_cycle;Max_cycle;Signal;HPM_P1;HPM_P2
2023/02/16 00:00:42;;;;;;;106.57;49.80;;;;;;;-4.66;100.00;97148.53;2098235;28;20048;-74
2023/02/16 00:01:43;;;;;;;107.22;50.22;;;;;;;-4.55;100.00;97179.25;2107172;28;20047;-74
2023/02/16 00:02:44;;;;;;;98.85;47.60;;;;;;;-4.61;100.00;97185.00;2107029;28;20504;-74
2023/02/16 00:03:46;;;;;;;100.72;49.63;;;;;;;-4.66;100.00;97178.94;2107482;28;20047;-74
2023/02/16 00:04:47;;;;;;;100.28;47.47;;;;;;;-4.67;100.00;97180.63;2107148;28;20050;-75
2023/02/16 00:05:48;;;;;;;93.90;46.08;;;;;;;-4.76;100.00;97164.25;2107173;28;20043;-74
2023/02/16 00:06:49;;;;;;;90.82;46.10;;;;;;;-4.77;100.00;97163.41;2098098;28;20040;-74
2023/02/16 00:07:51;;;;;;;95.97;48.20;;;;;;;-4.71;100.00;97175.41;2098155;28;20484;-75
2023/02/16 00:08:53;;;;;;;94.88;46.97;;;;;;;-4.73;100.00;97175.38;2107086;28;20048;-74
2023/02/16 00:09:54;;;;;;;97.72;46.00;;;;;;;-4.79;100.00;97170.09;2097631;28;20056;-75
2023/02/16 00:13:43;;;;;;;95.78;46.28;;;;;;;-4.78;99.52;97179.44;2087044;28;20487;-74
2023/02/16 00:14:44;;;;;;;109.50;48.10;;;;;;;-4.78;99.71;97176.91;2096880;28;20036;-74
2023/02/16 00:15:45;;;;;;;117.13;50.78;;;;;;;-4.71;100.00;97178.78;2107082;28;20396;-74
2023/02/16 00:16:47;;;;;;;168.82;63.72;;;;;;;-4.45;100.00;97174.50;2107024;28;20040;-74
2023/02/16 00:17:48;;;;;;;107.63;49.75;;;;;;;-4.43;100.00;97175.44;2107151;28;20040;-74
2023/02/16 00:18:49;;;;;;;111.95;48.45;;;;;;;-4.52;100.00;97147.25;2107287;28;20383;-74
2023/02/16 00:19:50;;;;;;;151.35;59.38;;;;;;;-4.36;100.00;97171.38;2097920;28;20056;-74
2023/02/16 00:20:51;;;;;;;193.45;67.47;;;;;;;-4.40;100.00;97177.19;2098089;28;20047;-74
2023/02/16 00:21:54;;;;;;;251.68;74.60;;;;;;;-4.44;100.00;97171.19;2098142;28;20429;-74
2023/02/16 00:22:55;;;;;;;333.67;86.53;;;;;;;-4.48;100.00;97169.34;2098110;28;20067;-74
2023/02/16 00:23:56;;;;;;;363.77;87.93;;;;;;;-4.50;100.00;97165.91;2107024;28;20040;-74
2023/02/16 00:24:57;;;;;;;333.58;85.78;;;;;;;-4.50;100.00;97163.38;2106962;28;20047;-74
2023/02/16 00:25:58;;;;;;;186.85;72.03;;;;;;;-4.50;100.00;97165.91;2106977;28;20028;-74
2023/02/16 00:26:59;;;;;;;171.60;69.30;;;;;;;-4.53;100.00;97177.66;2106985;28;20047;-74
2023/02/16 00:28:04;;;;;;;183.70;73.43;;;;;;;-4.58;100.00;97171.56;2089716;28;20052;-74
2023/02/16 00:29:05;;;;;;;154.70;63.80;;;;;;;-4.60;100.00;97170.66;2089643;28;20515;-74
2023/02/16 00:30:14;;;;;;;158.93;66.18;;;;;;;-4.68;100.00;97172.94;2081723;28;20048;-74
2023/02/16 00:31:19;;;;;;;99.35;44.92;;;;;;;-4.66;100.00;97174.72;2083259;28;20469;-74
2023/02/16 00:32:20;;;;;;;155.13;62.17;;;;;;;-4.66;100.00;97166.25;2098504;28;20028;-74
2023/02/16 00:33:21;;;;;;;149.32;63.70;;;;;;;-4.66;100.00;97168.78;2097969;28;20060;-74
2023/02/16 00:34:30;;;;;;;130.77;60.90;;;;;;;-4.71;100.00;97161.03;2097892;28;20448;-74
2023/02/16 00:35:31;;;;;;;140.02;62.42;;;;;;;-4.72;100.00;97163.53;2107015;28;20479;-74
2023/02/16 00:36:33;;;;;;;125.60;57.10;;;;;;;-4.71;100.00;97148.38;2098160;28;20056;-74
2023/02/16 00:37:34;;;;;;;117.82;56.15;;;;;;;-4.68;100.00;97163.69;2097692;28;20380;-74
2023/02/16 00:38:35;;;;;;;121.18;54.05;;;;;;;-4.64;100.00;97158.72;2097971;28;20033;-74
2023/02/16 00:39:37;;;;;;;121.32;57.85;;;;;;;-4.64;100.00;97158.72;2097964;28;20392;-74
2023/02/16 00:40:39;;;;;;;114.65;54.65;;;;;;;-4.72;100.00;97155.94;2081386;28;20056;-74
2023/02/16 00:41:49;;;;;;;119.72;53.92;;;;;;;-4.68;100.00;97162.81;2073085;28;20505;-74
2023/02/16 00:42:50;;;;;;;116.40;55.80;;;;;;;-4.71;100.00;97163.56;2085330;28;20041;-74
2023/02/16 00:43:53;;;;;;;122.68;56.88;;;;;;;-4.93;100.00;97128.25;2106827;28;20047;-74
2023/02/16 00:44:55;;;;;;;128.35;55.78;;;;;;;-4.79;100.00;97159.94;2106723;28;20066;-74
2023/02/16 00:45:56;;;;;;;118.25;53.45;;;;;;;-4.78;99.65;97163.38;2089704;28;20052;-74
2023/02/16 00:47:20;;;;;;;120.20;56.33;;;;;;;-4.80;99.65;97153.16;2081411;28;20033;-74
2023/02/16 00:48:22;;;;;;;125.35;56.95;;;;;;;-4.76;99.38;97159.19;2090477;28;20480;-74
2023/02/16 00:49:23;;;;;;;116.05;53.70;;;;;;;-4.74;99.18;97158.41;2097855;28;20427;-74
2023/02/16 00:50:29;;;;;;;115.00;53.25;;;;;;;-4.72;99.44;97161.88;2098005;28;20035;-74
2023/02/16 00:51:30;;;;;;;115.72;54.42;;;;;;;-4.71;99.06;97158.50;2089537;28;20040;-74
2023/02/16 00:52:36;;;;;;;116.55;55.50;;;;;;;-4.70;99.60;97156.84;2089668;28;20036;-74
2023/02/16 00:53:37;;;;;;;120.30;53.00;;;;;;;-4.66;99.12;97169.66;2097878;28;20025;-74
2023/02/16 00:54:38;;;;;;;106.43;51.03;;;;;;;-4.64;99.39;97169.72;2089725;28;20412;-74
2023/02/16 00:55:40;;;;;;;105.45;52.72;;;;;;;-4.67;99.43;97167.94;2097758;28;20041;-74
2023/02/16 00:56:41;;;;;;;105.68;52.28;;;;;;;-4.74;98.88;97160.09;2097800;28;20044;-73
2023/02/16 00:57:55;;;;;;;105.70;51.75;;;;;;;-4.72;99.27;97166.94;2097723;28;20036;-74
2023/02/16 00:58:56;;;;;;;105.57;50.63;;;;;;;-4.78;99.19;97163.38;2097852;28;20036;-74
2023/02/16 01:00:00;;;;;;;106.35;52.47;;;;;;;-4.82;99.28;97166.59;2081257;28;20041;-74
2023/02/16 01:01:10;;;;;;;94.80;49.10;;;;;;;-4.88;98.71;97173.19;2073906;28;20486;-74
2023/02/16 01:02:11;;;;;;;106.72;50.60;;;;;;;-4.95;98.83;97163.66;2083485;28;20074;-74
2023/02/16 01:03:17;;;;;;;108.45;50.90;;;;;;;-5.00;98.49;97162.66;2097745;28;20036;-74
2023/02/16 01:04:21;;;;;;;102.53;49.95;;;;;;;-5.06;98.56;97151.50;2089741;28;20044;-74
2023/02/16 01:05:22;;;;;;;110.68;52.70;;;;;;;-5.06;98.41;97165.00;2074200;28;20048;-74
2023/02/16 01:11:57;;;;;;;109.03;49.95;;;;;;;-5.13;98.43;97152.97;2086596;28;20045;-74
2023/02/16 01:12:58;;;;;;;107.28;51.25;;;;;;;-5.17;98.43;97134.28;2084026;28;20405;-74
2023/02/16 01:13:59;;;;;;;105.45;49.90;;;;;;;-5.05;97.92;97149.03;2089696;28;20041;-74
2023/02/16 01:15:00;;;;;;;106.80;50.42;;;;;;;-5.02;98.41;97171.06;2073177;28;20065;-74
2023/02/16 01:16:03;;;;;;;105.45;50.17;;;;;;;-5.07;98.33;97167.50;2089826;28;20047;-74
2023/02/16 01:17:04;;;;;;;102.60;50.33;;;;;;;-5.11;97.65;97169.91;2106607;28;20044;-74
2023/02/16 01:18:05;;;;;;;104.03;48.97;;;;;;;-5.17;98.54;97161.28;2106607;28;20502;-74
2023/02/16 01:19:06;;;;;;;110.80;49.90;;;;;;;-5.23;97.82;97158.56;2106464;28;20048;-74
2023/02/16 01:20:17;;;;;;;115.78;52.58;;;;;;;-5.20;98.08;97167.09;2089446;28;20067;-74
2023/02/16 01:21:20;;;;;;;100.50;48.85;;;;;;;-5.26;97.31;97154.25;2074429;28;20469;-74
2023/02/16 01:22:21;;;;;;;91.60;45.42;;;;;;;-5.29;97.30;97145.66;2074065;28;20049;-74
2023/02/16 01:23:22;;;;;;;96.88;46.17;;;;;;;-5.20;97.91;97158.66;2097798;28;20028;-74
2023/02/16 01:24:24;;;;;;;95.35;47.33;;;;;;;-5.21;97.88;97155.25;2097453;28;20089;-74
2023/02/16 01:25:25;;;;;;;95.00;46.38;;;;;;;-5.29;98.28;97148.19;2097613;28;20519;-74
2023/02/16 01:26:27;;;;;;;97.45;47.85;;;;;;;-5.24;97.81;97154.28;2089338;28;20457;-74
2023/02/16 01:27:28;;;;;;;93.90;46.38;;;;;;;-5.30;97.76;97146.50;2073083;28;20049;-74
2023/02/16 01:28:29;;;;;;;95.50;45.72;;;;;;;-5.47;97.39;97120.63;2064700;28;20047;-74
2023/02/16 01:29:30;;;;;;;94.88;48.38;;;;;;;-5.26;98.04;97159.31;2081066;28;20033;-74
2023/02/16 01:30:31;;;;;;;93.00;45.72;;;;;;;-5.26;97.82;97164.38;2106529;28;20035;-74
2023/02/16 01:31:33;;;;;;;87.38;43.80;;;;;;;-5.29;98.02;97154.16;2106457;28;20043;-74
2023/02/16 01:32:36;;;;;;;90.63;44.97;;;;;;;-5.29;98.05;97153.28;2097447;28;20043;-74
2023/02/16 01:33:37;;;;;;;83.00;43.55;;;;;;;-5.29;97.22;97155.81;2097624;28;20033;-74
2023/02/16 01:34:38;;;;;;;88.88;45.85;;;;;;;-5.33;97.48;97152.31;2097565;28;20044;-74
2023/02/16 01:35:40;;;;;;;86.40;45.63;;;;;;;-5.38;97.18;97147.09;2089243;28;20036;-74
2023/02/16 01:36:43;;;;;;;87.07;44.03;;;;;;;-5.37;97.76;97153.91;2080896;28;20037;-74
2023/02/16 01:37:44;;;;;;;88.00;43.58;;;;;;;-5.37;97.01;97150.50;2089935;28;20485;-74
2023/02/16 01:38:45;;;;;;;90.63;45.30;;;;;;;-5.39;97.08;97147.91;2097504;28;20040;-74
2023/02/16 01:39:49;;;;;;;87.93;43.60;;;;;;;-5.41;97.63;97148.66;2081659;28;20045;-74
2023/02/16 01:41:21;;;;;;;81.10;42.20;;;;;;;-5.41;96.96;97141.94;2089606;28;20040;-74
2023/02/16 01:42:40;;;;;;;78.70;41.08;;;;;;;-5.41;97.12;97146.13;2097536;28;20037;-73
2023/02/16 01:43:43;;;;;;;;;;;;;;;-5.47;97.21;97145.94;2083931;28;20473;-73
2023/02/16 01:44:47;;;;;;;79.45;39.83;;;;;;;-5.59;97.47;97131.19;2074634;28;20285;-74
2023/02/16 01:46:10;;;;;;;83.50;39.97;;;;;;;-5.63;97.07;97129.38;2081904;28;20037;-73
2023/02/16 01:47:29;;;;;;;85.68;42.67;;;;;;;-5.60;97.40;97140.47;2092580;28;20047;-74
2023/02/16 01:48:32;;;;;;;85.30;41.28;;;;;;;-5.60;96.70;97140.47;2093404;28;20523;-73
2023/02/16 01:49:33;;;;;;;84.22;41.75;;;;;;;-5.58;96.96;97138.00;2097725;28;20064;-73
2023/02/16 01:50:55;;;;;;;81.20;41.40;;;;;;;-5.67;97.18;97119.94;2106410;28;20040;-74
2023/02/16 01:52:43;;;;;;;85.55;42.83;;;;;;;-5.57;96.66;97139.72;2097490;28;20051;-74
2023/02/16 01:53:44;;;;;;;81.10;40.53;;;;;;;-5.58;96.43;97138.00;2072527;28;20065;-73
2023/02/16 01:54:53;;;;;;;86.70;41.50;;;;;;;-5.65;97.54;97123.41;2077597;28;20030;-73
2023/02/16 01:55:56;;;;;;;88.95;43.70;;;;;;;-5.54;97.63;97140.66;2080845;28;20041;-74
2023/02/16 01:57:23;;;;;;;90.90;43.28;;;;;;;-5.50;96.94;97140.78;2065757;28;20065;-74
2023/02/16 01:58:30;;;;;;;92.50;43.88;;;;;;;-5.54;97.82;97139.81;2073511;28;20048;-74
2023/02/16 01:59:44;;;;;;;87.47;42.33;;;;;;;-5.57;96.75;97135.50;2093551;28;20044;-74
2023/02/16 02:00:55;;;;;;;92.05;43.00;;;;;;;-5.56;97.14;97138.88;2099090;28;20526;-73
2023/02/16 02:02:03;;;;;;;87.65;42.67;;;;;;;-5.56;96.73;97137.25;2100974;28;20127;-75
2023/02/16 02:05:47;;;;;;;90.32;42.65;;;;;;;-5.62;98.11;97131.09;2093462;28;20194;-76
2023/02/16 02:06:48;;;;;;;91.07;43.85;;;;;;;-5.68;98.29;97126.69;2091037;28;20048;-76
2023/02/16 02:08:07;;;;;;;87.57;44.17;;;;;;;-5.71;98.02;97131.66;2099411;28;20036;-76
2023/02/16 02:09:13;;;;;;;73.43;36.08;;;;;;;-5.72;97.96;97136.66;2099267;28;20044;-76
2023/02/16 02:10:41;;;;;;;84.35;41.40;;;;;;;-5.77;98.02;97129.78;2083427;28;20385;-76
2023/02/16 02:11:48;;;;;;;92.80;43.20;;;;;;;-5.77;96.79;97129.78;2098318;28;20047;-76
2023/02/16 02:12:52;;;;;;;82.97;41.70;;;;;;;-5.73;97.04;97124.81;2090895;28;20048;-76
2023/02/16 02:14:08;;;;;;;87.10;42.40;;;;;;;-5.71;97.45;97120.69;2083897;28;20057;-76
2023/02/16 02:15:09;;;;;;;86.20;40.90;;;;;;;-5.75;97.41;97124.75;2082471;28;20041;-76
2023/02/16 02:16:10;;;;;;;84.35;42.58;;;;;;;-5.76;97.89;97121.38;2090932;28;20044;-76
2023/02/16 02:17:13;;;;;;;83.95;42.28;;;;;;;-5.76;96.92;97125.56;2074488;28;20480;-76
2023/02/16 02:18:14;;;;;;;87.32;42.60;;;;;;;-5.78;97.29;97125.50;2066853;28;20490;-76
2023/02/16 02:19:15;;;;;;;84.93;42.35;;;;;;;-5.80;96.17;97126.25;2082339;28;20041;-76
2023/02/16 02:23:29;;;;;;;82.05;40.83;;;;;;;-5.81;96.91;97124.56;2090971;28;20048;-75
2023/02/16 02:23:32;;;;;;;80.10;39.83;;;;;;;-5.78;96.97;97119.59;2085456;28;20072;-76
2023/02/16 02:24:58;;;;;;;83.20;40.25;;;;;;;-5.80;96.36;97111.06;2087546;28;20048;-76
2023/02/16 02:26:24;;;;;;;96.55;44.30;;;;;;;-5.83;96.30;97111.84;2102532;28;20043;-76
2023/02/16 02:27:26;;;;;;;87.13;42.15;;;;;;;-5.85;97.54;97112.63;2099036;28;20049;-76
2023/02/16 02:28:44;;;;;;;91.78;42.90;;;;;;;-5.88;97.21;97112.50;2074326;28;20468;-76
2023/02/16 02:29:53;;;;;;;95.28;44.97;;;;;;;-5.87;97.20;97114.22;2072620;28;20430;-76
2023/02/16 02:31:04;;;;;;;90.00;43.28;;;;;;;-5.88;97.22;97115.00;2077212;28;20057;-76
2023/02/16 02:32:05;;;;;;;91.55;43.47;;;;;;;-5.89;97.25;97119.22;2076818;28;20052;-76
2023/02/16 02:33:24;;;;;;;79.57;42.83;;;;;;;-5.90;97.22;97119.19;2084454;28;20045;-76
2023/02/16 02:34:44;;;;;;;91.57;45.38;;;;;;;-5.92;96.67;97116.59;2092417;28;20428;-76
2023/02/16 02:36:13;;;;;;;92.97;44.65;;;;;;;-5.96;97.49;97119.88;2093185;28;20045;-76
2023/02/16 02:37:30;;;;;;;90.93;44.78;;;;;;;-5.97;97.37;97118.13;2069320;28;20061;-76
2023/02/16 02:38:41;;;;;;;98.35;45.63;;;;;;;-6.02;97.07;97110.38;2084901;28;20412;-76
2023/02/16 02:40:02;;;;;;;100.72;46.63;;;;;;;-6.00;96.95;97118.03;2086107;28;20053;-76
2023/02/16 02:41:21;;;;;;;96.57;45.47;;;;;;;-5.96;96.74;97122.41;2085211;28;20041;-76
2023/02/16 02:42:41;;;;;;;90.40;44.88;;;;;;;-5.94;97.04;97112.31;2077224;28;20041;-76
2023/02/16 02:43:44;;;;;;;83.40;41.45;;;;;;;-5.77;97.91;97117.13;2092160;28;20039;-76
2023/02/16 02:44:57;;;;;;;85.95;42.47;;;;;;;-5.58;98.96;97117.75;2090376;28;20041;-76
2023/02/16 02:46:30;;;;;;;87.45;43.92;;;;;;;-5.54;100.00;97115.34;2085719;28;20464;-76
2023/02/16 02:47:44;;;;;;;81.35;41.88;;;;;;;-5.62;100.00;97110.84;2086713;28;20048;-76
2023/02/16 02:48:45;;;;;;;91.35;43.30;;;;;;;-5.52;100.00;97115.41;2094501;28;20524;-75
2023/02/16 02:49:51;;;;;;;87.55;46.28;;;;;;;-5.52;100.00;97104.44;2098921;28;20048;-76
2023/02/16 02:52:16;;;;;;;88.88;42.35;;;;;;;-5.55;100.00;97107.72;2085275;28;20037;-76
2023/02/16 02:53:18;;;;;;;84.65;42.35;;;;;;;-5.60;100.00;97104.16;2076707;28;20042;-76
2023/02/16 03:01:25;;;;;;;81.25;39.40;;;;;;;-5.72;98.64;97119.81;2091923;28;20040;-76
2023/02/16 03:02:26;;;;;;;83.95;41.90;;;;;;;-5.76;99.17;97128.94;2084640;28;20042;-76
2023/02/16 03:03:32;;;;;;;81.68;42.70;;;;;;;-5.75;98.78;97134.88;2082182;28;20037;-76
2023/02/16 03:04:33;;;;;;;86.93;43.42;;;;;;;-5.75;97.95;97129.81;2084667;28;20049;-76
2023/02/16 03:05:34;;;;;;;78.68;40.58;;;;;;;-5.74;98.79;97134.09;2085277;28;20046;-76
2023/02/16 03:06:40;;;;;;;82.13;42.63;;;;;;;-5.73;98.62;97137.47;2091689;28;20520;-76
2023/02/16 03:07:47;;;;;;;89.22;44.20;;;;;;;-5.71;99.13;97135.84;2082858;28;20068;-75
2023/02/16 03:08:53;;;;;;;83.00;40.72;;;;;;;-5.77;98.46;97139.91;2074946;28;20053;-76
2023/02/16 03:12:43;;;;;;;83.63;41.95;;;;;;;-5.76;98.76;97138.22;2076957;28;20046;-76
2023/02/16 03:12:46;;;;;;;83.13;40.58;;;;;;;-5.82;99.22;97131.28;2095952;28;20535;-76
2023/02/16 03:14:00;;;;;;;83.15;42.33;;;;;;;-5.74;99.15;97128.16;2085413;28;20045;-75
2023/02/16 03:15:01;;;;;;;89.13;42.65;;;;;;;-5.78;99.93;97132.25;2085151;28;20044;-75
2023/02/16 03:16:38;;;;;;;83.32;41.40;;;;;;;-5.87;99.21;97129.41;2083562;28;20041;-75
2023/02/16 03:29:47;;;;;;;90.85;44.30;;;;;;;-5.09;100.00;97106.66;2090478;28;20056;-76
2023/02/16 03:30:48;;;;;;;89.30;46.03;;;;;;;-5.18;100.00;97104.69;2084551;28;20045;-76
2023/02/16 03:31:50;;;;;;;85.72;45.45;;;;;;;-5.22;100.00;97099.47;2081962;28;20058;-76
2023/02/16 03:32:51;;;;;;;75.90;41.65;;;;;;;-5.27;100.00;97108.59;2090554;28;20056;-76
2023/02/16 03:33:53;;;;;;;78.57;43.53;;;;;;;-5.29;100.00;97115.28;2098411;28;20045;-76
2023/02/16 03:34:54;;;;;;;70.03;40.03;;;;;;;-5.35;100.00;97106.69;2090188;28;20045;-76
2023/02/16 03:35:55;;;;;;;75.45;43.03;;;;;;;-5.33;100.00;97107.59;2090270;28;20056;-75
2023/02/16 03:36:57;;;;;;;71.30;38.55;;;;;;;-5.36;100.00;97099.06;2089791;28;20045;-74
2023/02/16 03:37:58;;;;;;;75.88;40.63;;;;;;;-5.44;100.00;97088.66;2074075;28;20042;-73
2023/02/16 03:39:00;;;;;;;73.10;40.35;;;;;;;-5.31;100.00;97112.72;2090327;28;20037;-74
2023/02/16 03:41:20;;;;;;;74.90;40.13;;;;;;;-5.35;100.00;97094.00;2101167;28;20036;-74
2023/02/16 03:42:21;;;;;;;66.25;38.78;;;;;;;-5.27;100.00;97096.78;2098468;28;20040;-73
2023/02/16 03:43:25;;;;;;;67.50;37.53;;;;;;;-5.11;100.00;97109.13;2081876;28;20037;-73
2023/02/16 03:44:26;;;;;;;72.75;40.53;;;;;;;-5.20;100.00;97108.84;2082590;28;20056;-74
2023/02/16 03:45:27;;;;;;;71.97;39.03;;;;;;;-5.23;100.00;97118.88;2098264;28;20040;-73
2023/02/16 03:46:29;;;;;;;69.80;38.85;;;;;;;-5.26;100.00;97116.25;2098362;28;20073;-73
2023/02/16 03:47:30;;;;;;;68.93;36.83;;;;;;;-5.24;100.00;97116.28;2090176;28;20497;-78
2023/02/16 03:48:31;;;;;;;64.65;36.05;;;;;;;-5.25;100.00;97112.91;2098347;28;20033;-77
2023/02/16 03:49:32;;;;;;;63.33;36.10;;;;;;;-5.29;100.00;97111.09;2107234;28;20044;-78
2023/02/16 03:50:33;;;;;;;63.03;35.22;;;;;;;-5.17;100.00;97111.47;2107379;28;20031;-77
2023/02/16 03:51:34;;;;;;;61.88;34.90;;;;;;;-5.24;100.00;97111.22;2098573;28;20396;-77
2023/02/16 03:52:35;;;;;;;64.35;34.63;;;;;;;-5.26;100.00;97118.78;2098328;28;20037;-81
2023/02/16 03:53:36;;;;;;;64.93;35.42;;;;;;;-5.28;100.00;97122.09;2107573;28;20039;-77
2023/02/16 03:54:37;;;;;;;64.85;36.00;;;;;;;-5.30;100.00;97131.31;2107286;28;20047;-77
2023/02/16 03:55:43;;;;;;;61.92;34.15;;;;;;;-5.33;100.00;97129.53;2098497;28;20491;-78
2023/02/16 03:56:44;;;;;;;66.22;34.38;;;;;;;-5.37;99.51;97128.56;2090830;28;20067;-78
2023/02/16 03:57:46;;;;;;;57.53;32.78;;;;;;;-5.40;99.11;97125.94;2098951;28;20059;-78
2023/02/16 03:58:47;;;;;;;57.65;32.67;;;;;;;-5.42;99.60;97125.03;2107251;28;20042;-78
2023/02/16 03:59:49;;;;;;;59.90;33.70;;;;;;;-5.49;98.43;97118.03;2098239;28;20052;-78
2023/02/16 04:00:51;;;;;;;60.45;34.65;;;;;;;-5.50;98.63;97121.38;2098390;28;20051;-77
2023/02/16 04:01:52;;;;;;;61.75;33.42;;;;;;;-5.55;98.66;97125.44;2107141;28;20047;-78
2023/02/16 04:02:53;;;;;;;62.97;33.42;;;;;;;-5.65;98.51;97114.13;2098298;28;20040;-77
2023/02/16 04:03:54;;;;;;;57.35;33.33;;;;;;;-5.57;98.29;97124.53;2098430;28;20079;-77
2023/02/16 04:04:55;;;;;;;65.20;34.33;;;;;;;-5.60;97.53;97126.94;2107176;28;20059;-77
2023/02/16 04:05:56;;;;;;;63.15;35.22;;;;;;;-5.64;97.56;97123.47;2107072;28;20039;-77
2023/02/16 04:06:57;;;;;;;62.42;33.85;;;;;;;-5.66;97.50;97125.06;2107202;28;20399;-77
2023/02/16 04:07:58;;;;;;;66.55;35.63;;;;;;;-5.69;97.03;97130.03;2107279;28;20119;-77
2023/02/16 04:09:00;;;;;;;60.67;34.30;;;;;;;-5.70;96.96;97130.81;2107180;28;20040;-78
2023/02/16 04:10:01;;;;;;;59.25;33.70;;;;;;;-5.76;97.33;97123.91;2107194;28;20444;-77
2023/02/16 04:12:34;;;;;;;60.42;34.75;;;;;;;-5.73;97.95;97123.13;2107152;28;20051;-77
2023/02/16 04:12:35;;;;;;;63.20;33.80;;;;;;;-5.69;99.22;97127.50;2107336;28;20062;-77
2023/02/16 04:13:36;;;;;;;60.45;32.97;;;;;;;-5.64;99.49;97130.16;2106277;28;20048;-78
2023/02/16 04:14:37;;;;;;;64.95;36.45;;;;;;;-5.63;99.40;97137.84;2107117;28;20036;-77
2023/02/16 04:15:38;;;;;;;69.57;37.25;;;;;;;-5.67;99.99;97123.34;2107153;28;20040;-77
2023/02/16 04:16:39;;;;;;;64.35;35.47;;;;;;;-5.63;99.88;97130.25;2107251;28;20463;-77
2023/02/16 04:17:40;;;;;;;66.95;35.13;;;;;;;-5.62;100.00;97131.94;2107233;28;20031;-73
2023/02/16 04:18:41;;;;;;;58.58;34.35;;;;;;;-5.65;99.50;97131.00;2107196;28;20055;-73
2023/02/16 04:19:42;;;;;;;64.57;34.25;;;;;;;-5.66;99.27;97134.34;2106547;28;20052;-73
2023/02/16 04:20:44;;;;;;;62.03;34.25;;;;;;;-5.67;99.28;97130.06;2107084;28;20047;-73
2023/02/16 04:21:45;;;;;;;65.22;34.90;;;;;;;-5.68;99.49;97133.44;2107078;28;20040;-73
2023/02/16 04:22:46;;;;;;;62.42;34.10;;;;;;;-5.72;99.02;97129.94;2107065;28;20135;-73
2023/02/16 04:23:47;;;;;;;62.20;33.58;;;;;;;-5.70;99.53;97133.34;2107020;28;20407;-73
2023/02/16 04:24:48;;;;;;;57.78;32.20;;;;;;;-5.68;98.64;97138.50;2107013;28;20043;-73
2023/02/16 04:25:49;;;;;;;57.33;32.47;;;;;;;-5.68;98.05;97130.91;2106945;28;20044;-73
2023/02/16 04:26:50;;;;;;;56.40;32.28;;;;;;;-5.70;97.72;97137.56;2098475;28;20472;-73
2023/02/16 04:27:52;;;;;;;62.53;33.72;;;;;;;-5.71;97.32;97139.25;2098007;28;20041;-73
2023/02/16 04:28:53;;;;;;;55.08;31.13;;;;;;;-5.72;97.74;97136.66;2097929;28;20508;-74
2023/02/16 04:29:54;;;;;;;54.95;31.02;;;;;;;-5.71;97.25;97134.19;2097932;28;20041;-73
2023/02/16 04:30:55;;;;;;;59.17;31.83;;;;;;;-5.76;96.97;97121.38;2106890;28;20040;-73
2023/02/16 04:31:56;;;;;;;59.85;31.73;;;;;;;-5.79;96.18;97125.47;2098089;28;20488;-73
2023/02/16 04:32:58;;;;;;;58.50;32.97;;;;;;;-5.77;96.24;97127.25;2097837;28;20028;-73
2023/02/16 04:33:59;;;;;;;58.00;31.75;;;;;;;-5.77;96.12;97139.91;2097959;28;20040;-73
2023/02/16 04:35:00;;;;;;;56.70;31.52;;;;;;;-5.80;96.33;97136.38;2098001;28;20045;-73
2023/02/16 04:36:01;;;;;;;59.97;32.58;;;;;;;-5.78;97.73;97132.25;2106875;28;20028;-73
2023/02/16 04:37:02;;;;;;;58.10;32.45;;;;;;;-5.74;97.55;97135.75;2106901;28;20039;-73
2023/02/16 04:38:03;;;;;;;59.55;32.20;;;;;;;-5.86;98.06;97110.88;2106867;28;20059;-73
2023/02/16 04:39:04;;;;;;;56.70;32.70;;;;;;;-5.80;98.38;97132.22;2106882;28;20035;-73
2023/02/16 04:40:06;;;;;;;59.08;32.38;;;;;;;-5.81;98.33;97132.13;2106880;28;20043;-73
2023/02/16 04:41:07;;;;;;;55.80;31.85;;;;;;;-5.84;97.25;97127.84;2098021;28;20036;-73
2023/02/16 04:42:08;;;;;;;57.40;32.75;;;;;;;-5.90;97.28;97126.78;2097918;28;20043;-74
2023/02/16 04:43:09;;;;;;;55.45;31.70;;;;;;;-5.89;97.07;97129.34;2106945;28;20048;-75
2023/02/16 04:44:10;;;;;;;56.85;31.55;;;;;;;-5.90;97.17;97134.38;2106903;28;20035;-74
2023/02/16 04:45:11;;;;;;;56.83;31.58;;;;;;;-5.90;97.03;97131.84;2106847;28;20032;-74
2023/02/16 04:46:12;;;;;;;53.67;30.35;;;;;;;-5.87;96.12;97127.72;2106862;28;20051;-74
2023/02/16 04:47:14;;;;;;;55.42;31.15;;;;;;;-5.85;95.95;97135.38;2106809;28;20043;-74
2023/02/16 04:48:15;;;;;;;58.80;31.70;;;;;;;-5.86;96.53;97142.09;2097879;28;20048;-75
2023/02/16 04:49:16;;;;;;;62.38;32.20;;;;;;;-6.01;96.69;97109.59;2097904;28;20522;-74
2023/02/16 04:50:17;;;;;;;56.13;30.25;;;;;;;-5.86;96.18;97128.59;2106746;28;20502;-75
2023/02/16 04:51:18;;;;;;;58.05;31.80;;;;;;;-5.82;96.53;97138.03;2097886;28;20039;-74
2023/02/16 04:52:19;;;;;;;65.97;32.33;;;;;;;-5.80;96.32;97136.38;2097738;28;20032;-74
2023/02/16 04:53:20;;;;;;;57.60;31.88;;;;;;;-5.76;96.84;97133.16;2097726;28;20047;-74
2023/02/16 04:54:21;;;;;;;58.15;31.25;;;;;;;-5.82;96.61;97120.31;2097875;28;20496;-75
2023/02/16 04:55:23;;;;;;;57.92;32.85;;;;;;;-5.74;95.93;97134.09;2097945;28;20534;-75
2023/02/16 04:56:27;;;;;;;60.10;32.55;;;;;;;-5.73;96.62;97142.53;2089053;28;20041;-74
2023/02/16 04:57:28;;;;;;;59.58;33.15;;;;;;;-5.74;96.14;97130.69;2100279;28;20032;-74
2023/02/16 04:58:29;;;;;;;57.78;31.60;;;;;;;-5.74;97.33;97131.56;2108184;28;20039;-74
2023/02/16 04:59:30;;;;;;;57.42;30.08;;;;;;;-5.73;97.45;97125.66;2107239;28;20440;-74
2023/02/16 05:00:31;;;;;;;62.53;33.42;;;;;;;-5.66;98.24;97129.28;2106888;28;20039;-74
2023/02/16 05:01:32;;;;;;;55.28;31.88;;;;;;;-5.71;98.46;97103.81;2106790;28;20035;-74
2023/02/16 05:02:33;;;;;;;56.80;32.03;;;;;;;-5.64;99.10;97130.16;2106839;28;20042;-73
2023/02/16 05:03:34;;;;;;;54.63;32.63;;;;;;;-5.68;98.88;97124.16;2106804;28;20479;-73
2023/02/16 05:04:36;;;;;;;55.10;31.23;;;;;;;-5.66;98.92;97129.28;2106789;28;20032;-73
2023/02/16 05:05:37;;;;;;;54.80;31.27;;;;;;;-5.66;98.27;97130.13;2097689;28;20044;-73
2023/02/16 05:06:38;;;;;;;56.67;30.83;;;;;;;-5.66;98.48;97120.03;2097494;28;20040;-73
2023/02/16 05:07:39;;;;;;;55.63;30.38;;;;;;;-5.64;98.09;97122.56;2097746;28;20373;-74
2023/02/16 05:08:40;;;;;;;59.95;33.38;;;;;;;-5.65;97.28;97121.72;2097677;28;20044;-73
2023/02/16 05:09:41;;;;;;;57.05;32.75;;;;;;;-5.64;97.23;97123.47;2097711;28;20051;-73
2023/02/16 05:10:42;;;;;;;54.85;29.20;;;;;;;-5.69;96.75;97119.91;2097776;28;20040;-73
2023/02/16 05:14:45;;;;;;;52.45;28.60;;;;;;;-5.70;96.17;97128.31;2106761;28;20479;-73
2023/02/16 05:15:46;;;;;;;50.13;28.10;;;;;;;-5.74;96.05;97126.50;2089582;28;20496;-73
2023/02/16 05:16:47;;;;;;;55.20;29.70;;;;;;;-5.76;96.99;97131.47;2091786;28;20029;-73
2023/02/16 05:17:48;;;;;;;55.58;31.08;;;;;;;-5.78;96.10;97130.56;2106627;28;20040;-73
2023/02/16 05:18:50;;;;;;;58.20;30.92;;;;;;;-5.72;98.25;97124.88;2106933;28;20383;-73
2023/02/16 05:19:52;;;;;;;60.92;30.67;;;;;;;-6.02;97.91;97090.13;2106475;28;20051;-73
2023/02/16 05:22:13;;;;;;;53.85;28.98;;;;;;;-5.65;97.67;97136.06;2100632;28;20044;-73
2023/02/16 05:23:14;;;;;;;54.85;29.95;;;;;;;-5.61;97.85;97136.22;2106703;28;20398;-73
2023/02/16 05:24:15;;;;;;;58.38;30.98;;;;;;;-5.57;98.72;97137.16;2106614;28;20040;-74
2023/02/16 05:25:17;;;;;;;55.42;31.85;;;;;;;-5.59;98.37;97129.50;2106514;28;20086;-73
2023/02/16 05:26:18;;;;;;;55.63;30.67;;;;;;;-5.54;98.93;97133.06;2106475;28;20040;-74
2023/02/16 05:27:20;;;;;;;51.28;30.15;;;;;;;-5.52;98.52;97135.66;2106553;28;20381;-73
2023/02/16 05:28:21;;;;;;;52.42;29.00;;;;;;;-5.68;98.50;97110.66;2106519;28;20031;-73
2023/02/16 05:29:23;;;;;;;52.55;29.33;;;;;;;-5.48;98.62;97139.13;2106561;28;20036;-73
2023/02/16 05:30:24;;;;;;;51.78;27.20;;;;;;;-5.49;97.96;97139.97;2106551;28;20050;-73
2023/02/16 05:31:25;;;;;;;52.05;29.45;;;;;;;-5.46;97.56;97140.06;2097039;28;20527;-73
2023/02/16 05:32:26;;;;;;;48.38;28.05;;;;;;;-5.50;97.47;97140.78;2097765;28;20032;-75
2023/02/16 05:33:27;;;;;;;48.50;27.40;;;;;;;-5.50;97.64;97146.69;2097555;28;20044;-75
2023/02/16 05:34:28;;;;;;;48.03;27.23;;;;;;;-5.49;97.25;97150.09;2089299;28;20405;-75
2023/02/16 05:35:29;;;;;;;52.50;30.20;;;;;;;-5.62;96.73;97131.09;2097479;28;20032;-75